Time;durP1;ratioP1;P1;durP2;ratioP2;P2;SDS_P1;SDS_P2;PMS_P1;PMS_P2;Temp;Humidity;BMP_temperature;BMP_pressure;BME280_temperature;BME280_humidity;BME280_pressure;Samples;Min_cycle;Max_cycle;Signal;HPM_P1;HPM_P2
2021/03/30 00:00:24;;;;;;;3.25;2.03;;;10.10;54.80;;;;;;6246931;23;20391;-82
2021/03/30 00:02:49;;;;;;;3.47;1.92;;;10.20;54.60;;;;;;6246033;23;20004;-79
2021/03/30 00:05:15;;;;;;;5.30;2.10;;;10.30;54.70;;;;;;6246279;23;20009;-79
2021/03/30 00:07:41;;;;;;;4.95;2.00;;;10.20;55.10;;;;;;6245302;23;20004;-79
2021/03/30 00:10:11;;;;;;;6.03;2.33;;;10.10;55.90;;;;;;6247220;23;20063;-79
2021/03/30 00:12:37;;;;;;;3.63;2.00;;;10.10;55.50;;;;;;6245416;23;20008;-80
2021/03/30 00:15:05;;;;;;;5.18;2.25;;;9.90;54.90;;;;;;6246142;23;20441;-80
2021/03/30 00:17:31;;;;;;;3.33;1.90;;;9.70;55.30;;;;;;6244793;23;20504;-80
2021/03/30 00:19:56;;;;;;;3.30;1.90;;;9.70;56.10;;;;;;6245986;23;20016;-79
2021/03/30 00:22:22;;;;;;;3.20;2.15;;;9.70;56.90;;;;;;6245396;23;20004;-78
2021/03/30 00:24:48;;;;;;;4.15;2.10;;;9.60;57.00;;;;;;6245929;23;19996;-79
2021/03/30 00:27:14;;;;;;;5.05;2.33;;;9.60;57.50;;;;;;6273116;22;20011;-79
2021/03/30 00:29:43;;;;;;;4.78;2.20;;;9.50;57.40;;;;;;6246725;23;20008;-79
2021/03/30 00:32:14;;;;;;;5.10;2.30;;;9.50;57.50;;;;;;6245716;23;20004;-79
2021/03/30 00:34:40;;;;;;;;;;;9.40;57.70;;;;;;6270696;22;20138;-78
2021/03/30 00:37:06;;;;;;;4.20;2.10;;;9.40;57.70;;;;;;6245850;23;20295;-79
2021/03/30 00:39:32;;;;;;;6.18;2.17;;;9.50;57.30;;;;;;6246067;23;20138;-78
2021/03/30 00:41:58;;;;;;;8.35;2.42;;;9.50;57.00;;;;;;6245855;23;20032;-78
2021/03/30 00:44:24;;;;;;;6.72;2.33;;;9.50;57.20;;;;;;6244880;23;20012;-81
2021/03/30 00:46:51;;;;;;;6.55;2.13;;;9.40;57.90;;;;;;6246894;23;20028;-78
2021/03/30 00:49:19;;;;;;;3.60;2.17;;;9.40;57.60;;;;;;6245355;23;20004;-78
2021/03/30 00:51:47;;;;;;;5.88;2.20;;;9.30;58.10;;;;;;6270573;22;20007;-77
2021/03/30 00:54:14;;;;;;;4.15;2.35;;;9.20;58.20;;;;;;6245786;23;20000;-78
2021/03/30 00:56:40;;;;;;;4.40;1.98;;;9.20;58.20;;;;;;6244779;23;20012;-78
2021/03/30 00:59:07;;;;;;;4.60;2.38;;;9.10;58.00;;;;;;6244963;23;20008;-78
2021/03/30 01:01:32;;;;;;;5.82;2.20;;;9.00;58.40;;;;;;6270261;22;20015;-78
2021/03/30 01:03:58;;;;;;;3.70;2.33;;;9.00;59.00;;;;;;6245372;23;20027;-78
2021/03/30 01:06:24;;;;;;;3.92;2.00;;;9.00;59.50;;;;;;6270349;22;20423;-79
2021/03/30 01:09:10;;;;;;;4.93;2.30;;;9.10;58.80;;;;;;6245396;23;20015;-79
2021/03/30 01:12:04;;;;;;;5.95;2.25;;;9.10;58.40;;;;;;6244537;23;20004;-79
2021/03/30 01:15:04;;;;;;;5.35;2.20;;;9.10;58.80;;;;;;6219119;23;20012;-78
2021/03/30 01:18:03;;;;;;;5.75;2.10;;;8.90;59.10;;;;;;6244278;22;20386;-78
2021/03/30 01:20:50;;;;;;;3.53;2.10;;;8.90;59.00;;;;;;6218983;23;20012;-78
2021/03/30 01:23:34;;;;;;;4.32;2.20;;;8.80;58.80;;;;;;6246449;23;19992;-78
2021/03/30 01:26:38;;;;;;;3.60;2.40;;;8.70;60.10;;;;;;6246639;23;20387;-78
2021/03/30 01:29:11;;;;;;;3.08;1.95;;;8.70;60.90;;;;;;6244969;23;20008;-78
2021/03/30 01:31:39;;;;;;;5.43;2.15;;;8.60;60.90;;;;;;6244233;23;20391;-78
2021/03/30 01:34:07;;;;;;;5.20;2.05;;;8.60;60.10;;;;;;6244345;23;20000;-77
2021/03/30 01:36:36;;;;;;;5.50;2.03;;;8.50;60.00;;;;;;6244278;23;20011;-78
2021/03/30 01:39:06;;;;;;;4.90;2.30;;;8.50;60.20;;;;;;6246282;23;20322;-78
2021/03/30 01:41:33;;;;;;;3.70;2.00;;;8.40;60.10;;;;;;6270083;22;20007;-78
2021/03/30 01:43:59;;;;;;;2.58;1.90;;;8.50;60.70;;;;;;6244509;23;20012;-79
2021/03/30 01:46:29;;;;;;;5.10;2.45;;;8.50;60.50;;;;;;6245825;23;20027;-81
2021/03/30 01:48:55;;;;;;;3.03;1.92;;;8.40;60.70;;;;;;6270789;22;20004;-80
2021/03/30 01:51:21;;;;;;;3.20;2.10;;;8.40;60.80;;;;;;6244988;23;20012;-80
2021/03/30 01:53:48;;;;;;;4.15;2.45;;;8.40;61.30;;;;;;6246054;23;20441;-79
2021/03/30 01:56:14;;;;;;;3.33;2.00;;;8.30;61.20;;;;;;6270552;22;20011;-80
2021/03/30 01:58:41;;;;;;;3.60;2.00;;;8.30;60.70;;;;;;6245784;22;20012;-80
2021/03/30 02:01:08;;;;;;;4.35;2.15;;;8.20;61.00;;;;;;6245377;23;20000;-80
2021/03/30 02:03:35;;;;;;;4.22;2.25;;;8.20;61.40;;;;;;6245938;23;20000;-80
2021/03/30 02:06:05;;;;;;;4.70;2.40;;;8.20;60.70;;;;;;6245056;23;20082;-79
2021/03/30 02:08:32;;;;;;;6.50;2.55;;;8.30;60.80;;;;;;6244213;23;20009;-80
2021/03/30 02:10:58;;;;;;;6.57;2.38;;;8.30;60.50;;;;;;6244895;23;20083;-80
2021/03/30 02:16:12;;;;;;;7.35;2.78;;;8.30;61.10;;;;;;6256288;23;20008;-80
2021/03/30 02:18:47;;;;;;;5.85;2.55;;;8.10;61.10;;;;;;6213286;23;20016;-80
2021/03/30 02:21:18;;;;;;;5.82;2.17;;;8.20;61.10;;;;;;6189718;23;20435;-80
2021/03/30 02:23:45;;;;;;;5.67;2.33;;;8.30;60.70;;;;;;6188737;23;20000;-80
2021/03/30 02:26:13;;;;;;;5.82;2.42;;;8.20;60.90;;;;;;6189057;23;20005;-79
2021/03/30 02:28:44;;;;;;;4.25;2.10;;;8.10;61.10;;;;;;6188637;23;20001;-79
2021/03/30 02:31:15;;;;;;;3.33;1.85;;;8.00;61.60;;;;;;6189601;23;20011;-78
2021/03/30 02:33:45;;;;;;;3.40;2.28;;;7.90;61.90;;;;;;6214723;23;20305;-80
2021/03/30 02:36:11;;;;;;;5.07;2.28;;;7.80;62.00;;;;;;6189456;23;20435;-79
2021/03/30 02:38:38;;;;;;;3.65;2.20;;;7.80;62.00;;;;;;6188721;23;20083;-80
2021/03/30 02:41:04;;;;;;;2.85;1.98;;;7.80;62.00;;;;;;6189100;23;20011;-80
2021/03/30 02:43:31;;;;;;;5.63;2.30;;;7.80;61.90;;;;;;6213709;23;20019;-80
2021/03/30 02:45:57;;;;;;;2.47;1.90;;;7.80;62.10;;;;;;6189159;23;20015;-80
2021/03/30 02:48:23;;;;;;;4.13;2.15;;;7.70;61.70;;;;;;6215797;23;19997;-79
2021/03/30 02:50:50;;;;;;;4.22;2.22;;;7.80;61.50;;;;;;6189599;23;20532;-79
2021/03/30 02:53:17;;;;;;;3.95;2.45;;;7.80;61.40;;;;;;6189341;23;20005;-79
2021/03/30 02:55:45;;;;;;;5.45;2.08;;;7.80;61.60;;;;;;6214248;23;20007;-80
2021/03/30 02:58:11;;;;;;;3.25;1.80;;;7.80;61.40;;;;;;6189620;23;20059;-79
2021/03/30 03:00:40;;;;;;;2.67;2.20;;;7.80;60.90;;;;;;6188493;23;20092;-78
2021/03/30 03:03:09;;;;;;;3.97;2.20;;;7.90;60.90;;;;;;6189530;23;20040;-79
2021/03/30 03:05:35;;;;;;;7.80;2.60;;;7.80;61.40;;;;;;6188656;23;20424;-78
2021/03/30 03:08:05;;;;;;;2.90;1.92;;;7.60;61.90;;;;;;6214433;23;20016;-79
2021/03/30 03:10:31;;;;;;;4.40;1.90;;;7.50;62.40;;;;;;6215086;23;20015;-79
2021/03/30 03:12:58;;;;;;;3.80;2.00;;;7.60;62.50;;;;;;6215152;23;20004;-79
2021/03/30 03:15:25;;;;;;;4.13;2.30;;;7.70;61.90;;;;;;6215654;23;20008;-79
2021/03/30 03:17:52;;;;;;;4.95;2.20;;;7.60;61.80;;;;;;6221965;23;20020;-79
2021/03/30 03:20:18;;;;;;;8.55;2.38;;;7.40;62.30;;;;;;6244732;23;20420;-79
2021/03/30 03:22:45;;;;;;;4.07;2.03;;;7.30;62.60;;;;;;6235340;23;20000;-79
2021/03/30 03:25:14;;;;;;;4.03;1.80;;;7.20;62.80;;;;;;6244847;23;20004;-78
2021/03/30 03:27:40;;;;;;;3.23;1.83;;;7.20;62.70;;;;;;6246546;23;20000;-79
2021/03/30 03:30:07;;;;;;;3.83;2.20;;;7.10;62.90;;;;;;6247857;23;20319;-78
2021/03/30 03:32:33;;;;;;;6.40;2.97;;;7.20;62.40;;;;;;6246041;23;20462;-80
2021/03/30 03:34:59;;;;;;;2.47;2.20;;;7.10;61.90;;;;;;6247989;23;19999;-80
2021/03/30 03:37:25;;;;;;;3.67;2.00;;;7.10;61.80;;;;;;6246323;23;20001;-79
2021/03/30 03:39:51;;;;;;;4.90;2.13;;;7.20;61.90;;;;;;6247486;23;20004;-79
2021/03/30 03:42:16;;;;;;;4.70;1.90;;;7.20;61.60;;;;;;6247721;23;20005;-80
2021/03/30 03:44:42;;;;;;;3.27;2.00;;;7.20;61.60;;;;;;6245830;23;20032;-80
2021/03/30 03:47:08;;;;;;;3.63;1.80;;;7.00;61.20;;;;;;6246162;23;20008;-79
2021/03/30 03:49:33;;;;;;;5.10;1.93;;;6.90;61.60;;;;;;6247087;23;20071;-79
2021/03/30 03:52:05;;;;;;;2.73;1.90;;;6.80;62.00;;;;;;6247373;23;20023;-79
2021/03/30 03:54:33;;;;;;;2.88;1.58;;;6.70;62.00;;;;;;6245362;23;20035;-79
2021/03/30 03:57:22;;;;;;;5.03;1.90;;;6.60;62.60;;;;;;6271917;22;20484;-79
2021/03/30 03:59:49;;;;;;;3.40;1.80;;;6.50;63.00;;;;;;6245527;23;20008;-78
2021/03/30 04:02:21;;;;;;;5.40;1.90;;;6.50;63.10;;;;;;6247476;23;20050;-78
2021/03/30 04:05:10;;;;;;;3.47;2.20;;;6.50;63.10;;;;;;6270930;22;20000;-78
2021/03/30 04:07:47;;;;;;;3.10;2.07;;;6.40;63.90;;;;;;6247138;22;20007;-78
2021/03/30 04:10:17;;;;;;;4.37;2.10;;;6.40;63.90;;;;;;6271710;22;20014;-78
2021/03/30 04:12:44;;;;;;;4.30;2.50;;;6.40;63.90;;;;;;6245317;23;20004;-78
2021/03/30 04:15:10;;;;;;;3.70;2.10;;;6.40;63.80;;;;;;6247112;23;20442;-78
2021/03/30 04:17:36;;;;;;;5.27;1.93;;;6.40;63.80;;;;;;6244437;23;20023;-78
2021/03/30 04:20:14;;;;;;;4.33;2.13;;;6.40;64.40;;;;;;6246710;23;20008;-78
2021/03/30 04:22:40;;;;;;;3.73;2.10;;;6.40;64.60;;;;;;6246608;23;20008;-77
2021/03/30 04:25:07;;;;;;;4.33;2.23;;;6.40;64.50;;;;;;6245771;23;20015;-78
2021/03/30 04:27:33;;;;;;;4.63;2.20;;;6.50;64.70;;;;;;6244976;23;20004;-78
2021/03/30 04:29:59;;;;;;;6.93;2.67;;;6.50;64.50;;;;;;6271281;22;20019;-77
2021/03/30 04:32:25;;;;;;;5.60;2.67;;;6.50;64.50;;;;;;6245584;23;20031;-78
2021/03/30 04:34:51;;;;;;;4.73;2.63;;;6.50;64.80;;;;;;6244743;23;20008;-79
2021/03/30 04:37:16;;;;;;;7.73;2.40;;;6.40;65.30;;;;;;6245283;23;20074;-78
2021/03/30 04:39:42;;;;;;;6.37;2.80;;;6.40;65.60;;;;;;6244263;23;20015;-79
2021/03/30 04:42:08;;;;;;;4.87;2.63;;;6.30;65.40;;;;;;6245166;23;20521;-79
2021/03/30 04:44:34;;;;;;;4.47;2.50;;;6.30;65.30;;;;;;6244993;23;20004;-79
2021/03/30 04:47:00;;;;;;;2.90;2.10;;;6.40;65.00;;;;;;6246903;23;20036;-78
2021/03/30 04:49:26;;;;;;;5.83;2.37;;;6.40;64.80;;;;;;6245048;23;20087;-79
2021/03/30 04:51:52;;;;;;;3.43;2.27;;;6.30;65.70;;;;;;6244030;23;20038;-79
2021/03/30 04:54:18;;;;;;;7.13;2.57;;;6.20;65.90;;;;;;6245571;23;20091;-79
2021/03/30 04:56:44;;;;;;;6.40;2.23;;;6.30;65.80;;;;;;6245939;23;20462;-79
2021/03/30 04:59:09;;;;;;;5.53;2.23;;;6.40;65.10;;;;;;6245656;23;20082;-79
2021/03/30 05:01:35;;;;;;;3.63;2.20;;;6.40;64.70;;;;;;6270604;22;20011;-79
2021/03/30 05:04:01;;;;;;;4.93;2.53;;;6.40;64.50;;;;;;6271287;22;20008;-79
2021/03/30 05:06:26;;;;;;;5.97;2.40;;;6.40;65.10;;;;;;6245524;23;20054;-78
2021/03/30 05:08:52;;;;;;;5.20;2.00;;;6.40;64.70;;;;;;6245080;23;20012;-79
2021/03/30 05:11:18;;;;;;;3.03;1.97;;;6.30;65.00;;;;;;6245590;23;20027;-79
2021/03/30 05:13:43;;;;;;;8.83;2.40;;;6.30;64.90;;;;;;6245028;23;20478;-78
2021/03/30 05:16:09;;;;;;;5.80;2.57;;;6.20;64.90;;;;;;6245519;23;20054;-79
2021/03/30 05:18:34;;;;;;;4.33;1.90;;;6.10;64.90;;;;;;6246653;23;20423;-78
2021/03/30 05:21:00;;;;;;;3.90;2.00;;;6.10;65.50;;;;;;6270881;22;20011;-78
2021/03/30 05:23:26;;;;;;;5.57;2.20;;;6.00;66.00;;;;;;6246850;23;19993;-78
2021/03/30 05:25:52;;;;;;;6.33;2.80;;;6.00;66.40;;;;;;6270108;22;20172;-78
2021/03/30 05:28:18;;;;;;;3.20;2.20;;;6.00;66.60;;;;;;6246579;23;20002;-77
2021/03/30 05:30:44;;;;;;;5.30;2.37;;;6.00;66.00;;;;;;6244752;23;20014;-78
2021/03/30 05:33:09;;;;;;;3.33;2.00;;;6.10;66.10;;;;;;6270584;22;20015;-78
2021/03/30 05:35:35;;;;;;;3.80;1.97;;;6.10;66.10;;;;;;6244959;23;20107;-79
2021/03/30 05:38:01;;;;;;;4.60;2.10;;;6.10;65.70;;;;;;6246456;23;20070;-78
2021/03/30 05:40:27;;;;;;;6.23;2.60;;;6.20;65.50;;;;;;6270235;22;20010;-78
2021/03/30 05:42:54;;;;;;;4.83;2.50;;;6.10;65.60;;;;;;6244209;23;20034;-78
2021/03/30 05:45:20;;;;;;;4.77;2.40;;;6.10;65.70;;;;;;6270335;22;20009;-78
2021/03/30 05:47:50;;;;;;;5.17;2.50;;;6.20;65.50;;;;;;6244257;23;20091;-78
2021/03/30 05:50:22;;;;;;;4.20;2.33;;;6.20;65.90;;;;;;6244514;23;20012;-78
2021/03/30 05:53:05;;;;;;;3.58;2.28;;;6.20;66.00;;;;;;6245846;23;19996;-78
2021/03/30 05:55:32;;;;;;;4.50;2.10;;;6.20;65.70;;;;;;6245217;23;20008;-80
2021/03/30 05:58:01;;;;;;;6.47;2.63;;;6.20;66.20;;;;;;6244349;23;20035;-78
2021/03/30 06:00:29;;;;;;;4.03;2.33;;;6.20;65.70;;;;;;6244811;23;20008;-79
2021/03/30 06:02:58;;;;;;;5.70;2.47;;;6.30;65.90;;;;;;6245555;23;20031;-79
2021/03/30 06:05:24;;;;;;;4.53;2.63;;;6.30;65.50;;;;;;6245057;23;20009;-79
2021/03/30 06:07:56;;;;;;;4.77;2.37;;;6.30;65.60;;;;;;6244143;23;20004;-78
2021/03/30 06:10:25;;;;;;;4.57;2.13;;;6.30;65.40;;;;;;6244824;23;20062;-78
2021/03/30 06:12:51;;;;;;;5.03;2.30;;;6.40;66.10;;;;;;6243896;23;20038;-79
2021/03/30 06:15:17;;;;;;;8.30;2.70;;;6.40;66.80;;;;;;6244414;23;20439;-79
2021/03/30 06:17:48;;;;;;;3.50;2.60;;;6.40;66.70;;;;;;6243760;23;20016;-78
2021/03/30 06:20:27;;;;;;;8.27;2.50;;;6.50;65.80;;;;;;6244347;23;20004;-78
2021/03/30 06:23:11;;;;;;;4.00;2.10;;;6.50;65.60;;;;;;6244536;23;20093;-80
2021/03/30 06:25:38;;;;;;;5.70;2.10;;;6.60;64.90;;;;;;6245791;23;19993;-78
2021/03/30 06:28:14;;;;;;;6.60;2.50;;;6.60;64.20;;;;;;6244392;23;20008;-79
2021/03/30 06:30:56;;;;;;;4.43;2.50;;;6.60;64.10;;;;;;6243866;23;20004;-78
2021/03/30 06:33:22;;;;;;;4.53;2.10;;;6.60;64.10;;;;;;6245433;23;20503;-83
2021/03/30 06:35:48;;;;;;;5.87;2.37;;;6.70;64.20;;;;;;6242452;23;20028;-77
2021/03/30 06:38:14;;;;;;;5.20;2.80;;;6.90;63.40;;;;;;6245368;23;20028;-75
2021/03/30 06:40:41;;;;;;;5.07;2.70;;;7.10;63.40;;;;;;6244493;23;20007;-75
2021/03/30 06:46:09;;;;;;;5.67;2.87;;;7.50;62.10;;;;;;6245308;23;20020;-74
2021/03/30 06:48:37;;;;;;;4.43;2.40;;;7.50;61.40;;;;;;6243818;23;20000;-75
2021/03/30 06:51:19;;;;;;;4.80;2.27;;;7.60;61.00;;;;;;6243279;23;20436;-75
2021/03/30 06:53:46;;;;;;;4.03;2.35;;;7.60;60.60;;;;;;6243974;23;20027;-76
2021/03/30 06:56:12;;;;;;;4.03;2.10;;;7.60;60.80;;;;;;6244681;23;20007;-75
2021/03/30 06:58:57;;;;;;;4.80;2.37;;;7.60;60.70;;;;;;6242980;23;20005;-76
2021/03/30 07:01:25;;;;;;;5.40;2.20;;;7.70;60.70;;;;;;6242779;23;20043;-74
2021/03/30 07:03:53;;;;;;;4.27;2.13;;;7.80;60.30;;;;;;6243318;23;20331;-75
2021/03/30 07:06:19;;;;;;;5.40;2.60;;;7.90;59.80;;;;;;6245496;23;20012;-76
2021/03/30 07:08:45;;;;;;;8.60;2.40;;;8.00;60.40;;;;;;6244207;23;20054;-76
2021/03/30 07:11:15;;;;;;;4.43;2.27;;;8.10;60.50;;;;;;6245200;23;20454;-75
2021/03/30 07:13:40;;;;;;;5.37;2.47;;;8.10;60.20;;;;;;6244646;23;20090;-76
2021/03/30 07:16:31;;;;;;;4.70;2.40;;;8.20;60.40;;;;;;6245868;23;20046;-76
2021/03/30 07:19:01;;;;;;;7.87;2.40;;;8.30;60.60;;;;;;6181791;23;20016;-74
2021/03/30 07:21:35;;;;;;;7.37;2.90;;;8.30;61.20;;;;;;6189799;23;20004;-75
2021/03/30 07:24:07;;;;;;;7.72;2.90;;;8.30;60.60;;;;;;6189932;23;20004;-75
2021/03/30 07:26:41;;;;;;;6.88;2.70;;;8.40;60.30;;;;;;6190370;23;20031;-74
2021/03/30 07:29:36;;;;;;;3.75;2.20;;;8.40;60.10;;;;;;6216861;23;20001;-75
2021/03/30 07:32:23;;;;;;;3.53;2.00;;;8.50;59.60;;;;;;6215851;23;20442;-75
2021/03/30 07:34:57;;;;;;;4.80;2.33;;;8.60;58.80;;;;;;6214630;23;20000;-75
2021/03/30 07:37:39;;;;;;;6.03;1.90;;;8.60;58.90;;;;;;6189358;23;20023;-75
2021/03/30 07:40:06;;;;;;;4.50;1.95;;;8.60;58.40;;;;;;6189124;23;20009;-74
2021/03/30 07:42:33;;;;;;;4.30;1.75;;;8.70;58.00;;;;;;6189371;23;20008;-74
2021/03/30 07:44:59;;;;;;;3.90;2.22;;;8.70;57.90;;;;;;6188767;23;20432;-75
2021/03/30 07:47:25;;;;;;;4.40;2.20;;;8.80;58.70;;;;;;6189266;23;20004;-75
2021/03/30 07:49:52;;;;;;;4.68;1.92;;;8.80;57.80;;;;;;6213695;23;20019;-74
2021/03/30 07:52:28;;;;;;;6.03;2.10;;;8.90;57.60;;;;;;6216048;23;20025;-75
2021/03/30 07:55:27;;;;;;;3.33;1.83;;;8.90;57.60;;;;;;6188949;23;20485;-75
2021/03/30 07:58:13;;;;;;;3.95;1.90;;;9.00;57.60;;;;;;6215507;23;20424;-74
2021/03/30 08:00:39;;;;;;;4.25;2.10;;;9.10;57.60;;;;;;6215235;23;20018;-74
2021/03/30 08:03:22;;;;;;;5.45;1.70;;;9.10;57.50;;;;;;6216132;23;19996;-74
2021/03/30 08:06:17;;;;;;;6.88;1.90;;;9.20;58.20;;;;;;6215195;23;20000;-74
2021/03/30 08:08:50;;;;;;;5.15;1.75;;;9.30;57.60;;;;;;6213972;23;20087;-75
2021/03/30 08:11:37;;;;;;;2.58;1.65;;;9.30;57.40;;;;;;6215724;23;20008;-75
2021/03/30 08:14:03;;;;;;;4.20;2.17;;;9.40;56.90;;;;;;6188204;23;20005;-75
2021/03/30 08:16:29;;;;;;;4.97;1.70;;;9.40;56.40;;;;;;6213756;22;20032;-75
2021/03/30 08:18:57;;;;;;;2.95;1.60;;;9.50;56.60;;;;;;6188513;23;20016;-74
2021/03/30 08:21:23;;;;;;;4.60;1.92;;;9.50;56.30;;;;;;6215032;23;20012;-74
2021/03/30 08:23:52;;;;;;;4.32;1.80;;;9.60;56.10;;;;;;6188205;23;20320;-75
2021/03/30 08:26:30;;;;;;;5.97;1.80;;;9.60;55.90;;;;;;6188792;23;20328;-74
2021/03/30 08:29:04;;;;;;;3.00;1.90;;;9.70;56.20;;;;;;6214894;23;20416;-74
2021/03/30 08:31:31;;;;;;;4.38;1.58;;;9.90;55.40;;;;;;6188674;23;20005;-75
2021/03/30 08:34:03;;;;;;;2.95;1.95;;;9.90;55.30;;;;;;6188507;23;20047;-74
2021/03/30 08:36:32;;;;;;;3.45;1.45;;;9.90;55.30;;;;;;6188993;23;20000;-74
2021/03/30 08:39:01;;;;;;;2.60;1.40;;;10.00;55.20;;;;;;6188347;23;20012;-79
2021/03/30 08:41:42;;;;;;;3.78;1.73;;;10.10;54.90;;;;;;6188735;23;20062;-76
2021/03/30 08:44:23;;;;;;;2.47;1.30;;;10.10;54.70;;;;;;6188957;23;20006;-75
2021/03/30 08:46:57;;;;;;;4.40;1.77;;;10.20;54.80;;;;;;6188364;23;20021;-76
2021/03/30 08:49:36;;;;;;;2.00;1.52;;;10.20;55.10;;;;;;6215090;23;20226;-74
2021/03/30 08:52:08;;;;;;;3.92;1.75;;;10.30;55.10;;;;;;6187255;23;20005;-74
2021/03/30 08:54:44;;;;;;;2.63;1.50;;;10.40;55.00;;;;;;6187899;23;20147;-74
2021/03/30 08:57:13;;;;;;;6.15;1.90;;;10.40;54.80;;;;;;6188564;23;20028;-76
2021/03/30 08:59:40;;;;;;;4.47;1.95;;;10.50;54.80;;;;;;6189039;23;20008;-77
2021/03/30 09:02:09;;;;;;;6.63;2.22;;;10.60;54.90;;;;;;6188465;23;20028;-75
2021/03/30 09:04:38;;;;;;;6.88;2.58;;;10.70;55.00;;;;;;6215808;23;19997;-76
2021/03/30 09:07:05;;;;;;;4.20;1.90;;;10.80;54.60;;;;;;6214928;23;19988;-76
2021/03/30 09:09:34;;;;;;;9.82;2.58;;;10.80;54.30;;;;;;6188839;23;20008;-75
2021/03/30 09:12:21;;;;;;;4.05;1.90;;;10.90;54.30;;;;;;6188596;23;20067;-74
2021/03/30 09:14:58;;;;;;;3.67;1.90;;;11.00;54.60;;;;;;6187315;23;20012;-75
2021/03/30 09:17:24;;;;;;;4.75;2.60;;;11.00;53.90;;;;;;6226769;23;20019;-76
2021/03/30 09:19:51;;;;;;;4.53;1.85;;;11.10;54.10;;;;;;6244630;23;20008;-75
2021/03/30 09:23:05;;;;;;;5.78;1.90;;;11.20;54.00;;;;;;6245524;23;20023;-75
2021/03/30 09:27:44;;;;;;;4.47;2.70;;;11.30;53.90;;;;;;6244851;23;20419;-75
2021/03/30 09:30:13;;;;;;;4.70;2.45;;;11.50;54.20;;;;;;6243763;23;20171;-75
2021/03/30 09:32:42;;;;;;;4.30;2.13;;;11.50;54.20;;;;;;6243763;23;20031;-75
2021/03/30 09:35:28;;;;;;;5.97;2.28;;;11.50;54.20;;;;;;6245065;22;20001;-75
2021/03/30 09:37:53;;;;;;;5.95;2.25;;;11.50;54.10;;;;;;6242506;23;20008;-75
2021/03/30 09:40:26;;;;;;;6.30;2.42;;;11.60;54.30;;;;;;6243937;23;20035;-76
2021/03/30 09:42:52;;;;;;;6.32;2.60;;;11.70;54.20;;;;;;6244526;23;20054;-76
2021/03/30 09:45:32;;;;;;;7.20;2.83;;;11.70;54.20;;;;;;6243550;23;20019;-75
2021/03/30 09:48:05;;;;;;;5.85;2.97;;;11.70;54.10;;;;;;6244688;23;20086;-75
2021/03/30 09:50:31;;;;;;;8.93;2.72;;;11.90;53.90;;;;;;6244082;23;20004;-75
2021/03/30 09:53:07;;;;;;;6.40;2.50;;;12.20;53.50;;;;;;6240594;23;20031;-76
2021/03/30 09:55:38;;;;;;;7.82;2.65;;;12.30;53.40;;;;;;6243857;23;20038;-76
2021/03/30 09:58:11;;;;;;;10.27;3.15;;;12.40;53.30;;;;;;6243078;23;20012;-76
2021/03/30 10:00:42;;;;;;;7.25;2.88;;;12.50;53.30;;;;;;6243579;23;20099;-76
2021/03/30 10:03:10;;;;;;;5.43;2.60;;;12.50;53.30;;;;;;6242777;23;20004;-75
2021/03/30 10:05:37;;;;;;;4.15;2.60;;;12.60;53.70;;;;;;6244654;22;19996;-75
2021/03/30 10:08:04;;;;;;;6.20;3.05;;;12.70;53.60;;;;;;6242902;23;20258;-75
2021/03/30 10:10:41;;;;;;;10.55;3.33;;;12.80;53.60;;;;;;6244141;23;20338;-75
2021/03/30 10:13:08;;;;;;;7.28;3.20;;;12.90;53.20;;;;;;6244248;23;20000;-73
2021/03/30 10:15:34;;;;;;;8.45;2.92;;;13.00;52.90;;;;;;6243458;23;20036;-75
2021/03/30 10:18:02;;;;;;;7.93;2.65;;;13.00;52.90;;;;;;6243044;23;20023;-77
2021/03/30 10:20:28;;;;;;;6.63;3.10;;;13.00;53.10;;;;;;6243456;23;20008;-79
2021/03/30 10:22:54;;;;;;;6.50;3.00;;;13.20;52.70;;;;;;6242171;23;20008;-75
2021/03/30 10:25:21;;;;;;;7.80;2.63;;;13.20;52.40;;;;;;6243239;23;20004;-75
2021/03/30 10:27:50;;;;;;;6.82;2.97;;;13.20;52.00;;;;;;6242837;23;20011;-75
2021/03/30 10:30:17;;;;;;;4.65;2.88;;;13.20;52.30;;;;;;6243681;23;20009;-75
2021/03/30 10:32:51;;;;;;;8.07;2.97;;;13.20;52.60;;;;;;6244837;23;20358;-75
2021/03/30 10:35:17;;;;;;;9.25;2.92;;;13.40;52.80;;;;;;6243935;23;20079;-75
2021/03/30 10:37:43;;;;;;;7.93;3.15;;;13.50;52.00;;;;;;6243280;23;20078;-77
2021/03/30 10:40:10;;;;;;;7.32;2.78;;;13.70;52.50;;;;;;6242343;23;20070;-76
2021/03/30 10:42:40;;;;;;;8.88;3.00;;;13.70;51.70;;;;;;6243332;23;20394;-76
2021/03/30 10:45:08;;;;;;;4.97;3.10;;;13.80;51.80;;;;;;6242308;23;20521;-76
2021/03/30 10:47:36;;;;;;;5.80;3.00;;;13.90;52.00;;;;;;6244390;23;20027;-78
2021/03/30 10:50:12;;;;;;;12.85;2.92;;;14.10;51.70;;;;;;6242116;23;20055;-74
2021/03/30 10:52:39;;;;;;;10.05;3.10;;;14.10;51.50;;;;;;6243184;23;20054;-73
2021/03/30 10:55:08;;;;;;;6.13;2.58;;;14.20;51.60;;;;;;6243734;23;20003;-75
2021/03/30 10:57:40;;;;;;;5.45;2.90;;;14.30;51.30;;;;;;6242913;23;20435;-75
2021/03/30 11:00:09;;;;;;;10.68;3.38;;;14.50;50.90;;;;;;6242479;23;20044;-75
2021/03/30 11:02:35;;;;;;;6.38;2.92;;;14.60;50.30;;;;;;6243038;23;20004;-75
2021/03/30 11:05:01;;;;;;;7.60;3.15;;;14.70;50.20;;;;;;6239836;23;20070;-75
2021/03/30 11:07:27;;;;;;;6.53;2.95;;;14.80;50.20;;;;;;6242474;23;20004;-76
2021/03/30 11:09:52;;;;;;;7.10;3.58;;;14.90;50.20;;;;;;6242502;23;20062;-75
2021/03/30 11:12:18;;;;;;;10.15;3.60;;;15.00;50.60;;;;;;6242873;23;20008;-75
2021/03/30 11:14:44;;;;;;;8.23;3.10;;;15.10;49.90;;;;;;6244662;23;20012;-75
2021/03/30 11:17:09;;;;;;;8.73;3.00;;;15.20;49.80;;;;;;6243909;23;20039;-75
2021/03/30 11:19:36;;;;;;;8.93;3.35;;;15.30;49.40;;;;;;6243143;23;20012;-75
2021/03/30 11:22:02;;;;;;;12.00;4.07;;;15.50;48.60;;;;;;6242180;23;20450;-75
2021/03/30 11:24:34;;;;;;;5.88;3.03;;;15.60;48.80;;;;;;6243635;23;20004;-75
2021/03/30 11:27:00;;;;;;;7.72;3.05;;;15.60;48.40;;;;;;6242141;23;20007;-75
2021/03/30 11:34:49;;;;;;;7.53;2.80;;;15.90;47.90;;;;;;6209244;22;20000;-76
2021/03/30 11:40:07;;;;;;;;;;;16.10;47.20;;;;;;6209163;22;20016;-75
2021/03/30 11:42:33;;;;;;;10.32;2.92;;;16.20;47.10;;;;;;6242477;23;19965;-75
2021/03/30 11:44:59;;;;;;;6.97;3.00;;;16.30;47.10;;;;;;6240824;23;20009;-75
2021/03/30 11:47:24;;;;;;;7.63;2.92;;;16.40;48.00;;;;;;6244110;23;19996;-75
2021/03/30 11:49:50;;;;;;;5.63;2.90;;;16.40;47.30;;;;;;6243302;23;20493;-75
2021/03/30 11:52:16;;;;;;;6.93;2.63;;;16.50;46.80;;;;;;6243717;23;20000;-75
2021/03/30 11:54:42;;;;;;;7.50;2.85;;;16.50;47.10;;;;;;6243623;23;20395;-75
2021/03/30 11:57:08;;;;;;;8.82;2.97;;;16.60;47.60;;;;;;6245651;23;20031;-74
2021/03/30 11:59:33;;;;;;;6.32;2.70;;;16.70;47.70;;;;;;6244869;23;20014;-84
2021/03/30 12:01:59;;;;;;;6.57;3.22;;;16.70;46.80;;;;;;6269523;22;20004;-74
2021/03/30 12:04:24;;;;;;;8.32;2.70;;;16.80;46.40;;;;;;6246346;23;20105;-74
2021/03/30 12:06:53;;;;;;;5.85;2.92;;;17.00;46.30;;;;;;6243531;23;20017;-77
2021/03/30 12:09:19;;;;;;;6.28;2.50;;;17.20;45.90;;;;;;6244881;23;20024;-74
2021/03/30 12:11:46;;;;;;;8.10;2.80;;;17.40;43.60;;;;;;6269388;22;20000;-75
2021/03/30 12:14:12;;;;;;;4.72;2.78;;;17.50;43.30;;;;;;6243990;23;20166;-75
2021/03/30 12:16:37;;;;;;;8.45;3.13;;;17.70;42.80;;;;;;6243540;23;20383;-75
2021/03/30 12:19:04;;;;;;;5.65;2.60;;;17.80;42.90;;;;;;6243912;23;20012;-75
2021/03/30 12:21:29;;;;;;;5.32;2.30;;;17.90;42.40;;;;;;6244575;23;20032;-74
2021/03/30 12:23:56;;;;;;;3.60;2.65;;;18.20;41.80;;;;;;6245354;23;20003;-74
2021/03/30 12:26:21;;;;;;;5.57;2.20;;;18.50;41.80;;;;;;6246278;23;20079;-74
2021/03/30 12:28:47;;;;;;;5.47;2.50;;;18.70;41.10;;;;;;6244157;23;20035;-73
2021/03/30 12:31:13;;;;;;;5.15;2.33;;;18.90;40.40;;;;;;6268650;22;19996;-74
2021/03/30 12:33:39;;;;;;;4.03;2.42;;;19.10;40.00;;;;;;6244009;23;20008;-73
2021/03/30 12:36:06;;;;;;;4.50;2.47;;;19.40;38.90;;;;;;6243437;23;20424;-74
2021/03/30 12:38:32;;;;;;;5.57;2.40;;;19.60;38.40;;;;;;6245848;23;19998;-73
2021/03/30 12:40:58;;;;;;;8.70;2.67;;;19.80;38.50;;;;;;6243215;23;20082;-75
2021/03/30 12:43:23;;;;;;;4.63;2.40;;;20.10;37.50;;;;;;6244098;23;20038;-74
2021/03/30 12:45:49;;;;;;;3.25;2.08;;;20.30;37.00;;;;;;6245801;23;20054;-75
2021/03/30 12:48:15;;;;;;;3.67;1.80;;;20.50;37.40;;;;;;6268506;22;20301;-74
2021/03/30 12:50:41;;;;;;;4.70;2.17;;;20.80;36.70;;;;;;6243811;23;20307;-74
2021/03/30 12:53:07;;;;;;;4.55;2.20;;;21.00;36.20;;;;;;6244976;22;20039;-74
2021/03/30 12:55:34;;;;;;;3.00;2.13;;;21.20;34.60;;;;;;6245555;23;20015;-74
2021/03/30 12:57:59;;;;;;;6.60;1.92;;;21.40;34.40;;;;;;6245365;23;20063;-75
2021/03/30 13:00:25;;;;;;;5.53;2.03;;;21.60;33.80;;;;;;6246257;23;20035;-73
2021/03/30 13:02:51;;;;;;;8.50;2.03;;;21.80;33.70;;;;;;6248018;23;20003;-75
2021/03/30 13:05:17;;;;;;;5.82;2.05;;;22.00;34.00;;;;;;6271294;22;20031;-74
2021/03/30 13:07:44;;;;;;;4.85;2.03;;;22.30;34.40;;;;;;6271304;22;20027;-75
2021/03/30 13:10:10;;;;;;;8.77;1.90;;;22.50;33.70;;;;;;6247680;23;20002;-74
2021/03/30 13:12:36;;;;;;;2.85;1.60;;;22.80;33.30;;;;;;6246978;23;20004;-73
2021/03/30 13:15:06;;;;;;;3.85;1.90;;;23.30;32.60;;;;;;6246621;23;20050;-74
2021/03/30 13:17:32;;;;;;;5.15;1.52;;;23.80;30.60;;;;;;6247824;23;20018;-73
2021/03/30 13:19:57;;;;;;;3.30;1.70;;;24.40;29.70;;;;;;6247303;23;19996;-74